Time;durP1;ratioP1;P1;durP2;ratioP2;P2;SDS_P1;SDS_P2;PMS_P1;PMS_P2;Temp;Humidity;BMP_temperature;BMP_pressure;BME280_temperature;BME280_humidity;BME280_pressure;Samples;Min_cycle;Max_cycle;Signal;HPM_P1;HPM_P2
2022/03/05 00:01:56;;;;;;;;;;;;;;;;;;5075086;28;19925;-79
2022/03/05 00:04:21;;;;;;;;;;;;;;;;;;5075108;28;19978;-77
2022/03/05 00:06:49;;;;;;;;;;;;;;;;;;5075139;28;19977;-77
2022/03/05 00:09:15;;;;;;;;;;;;;;;;;;5074881;28;20332;-79
2022/03/05 00:11:40;;;;;;;;;;;;;;;;;;5074879;28;19962;-78
2022/03/05 00:14:05;;;;;;;;;;;;;;;;;;5074805;28;20403;-80
2022/03/05 00:16:31;;;;;;;;;;;;;;;;;;5074403;28;20011;-79
2022/03/05 00:18:56;;;;;;;;;;;;;;;;;;5074742;28;20003;-77
2022/03/05 00:21:22;;;;;;;;;;;;;;;;;;5074767;28;19916;-80
2022/03/05 00:23:47;;;;;;;;;;;;;;;;;;5074609;28;20306;-80
2022/03/05 00:26:13;;;;;;;;;;;;;;;;;;5074620;28;19916;-78
2022/03/05 00:28:38;;;;;;;;;;;;;;;;;;5074781;28;19978;-78
2022/03/05 00:31:04;;;;;;;;;;;;;;;;;;5074617;28;19951;-80
2022/03/05 00:33:29;;;;;;;;;;;;;;;;;;5074439;28;20295;-78
2022/03/05 00:35:55;;;;;;;;;;;;;;;;;;5074353;28;19931;-79
2022/03/05 00:38:21;;;;;;;;;;;;;;;;;;5074375;28;19921;-79
2022/03/05 00:40:46;;;;;;;;;;;;;;;;;;5074541;28;19932;-79
2022/03/05 00:43:13;;;;;;;;;;;;;;;;;;5074352;28;20368;-78
2022/03/05 00:45:38;;;;;;;;;;;;;;;;;;5073981;28;19970;-78
2022/03/05 00:48:04;;;;;;;;;;;;;;;;;;5074551;28;19920;-78
2022/03/05 00:50:29;;;;;;;;;;;;;;;;;;5074248;28;20272;-79
2022/03/05 00:52:55;;;;;;;;;;;;;;;;;;5074422;28;19974;-81
2022/03/05 00:55:20;;;;;;;;;;;;;;;;;;5086908;28;20372;-79
2022/03/05 00:57:46;;;;;;;;;;;;;;;;;;5094162;28;20010;-78
2022/03/05 01:00:11;;;;;;;;;;;;;;;;;;5094311;28;19916;-80
2022/03/05 01:02:38;;;;;;;;;;;;;;;;;;5094403;28;19928;-78
2022/03/05 01:05:03;;;;;;;;;;;;;;;;;;5092962;28;19916;-78
2022/03/05 01:07:29;;;;;;;;;;;;;;;;;;5094185;28;20006;-78
2022/03/05 01:09:54;;;;;;;;;;;;;;;;;;5094002;28;19924;-80
2022/03/05 01:12:21;;;;;;;;;;;;;;;;;;5094148;28;19916;-78
2022/03/05 01:14:47;;;;;;;;;;;;;;;;;;5094123;28;19961;-79
2022/03/05 01:17:12;;;;;;;;;;;;;;;;;;5094029;28;19920;-78
2022/03/05 01:19:38;;;;;;;;;;;;;;;;;;5080125;28;19920;-79
2022/03/05 01:22:03;;;;;;;;;;;;;;;;;;5083560;28;19939;-78
2022/03/05 01:24:29;;;;;;;;;;;;;;;;;;5082326;28;20027;-77
2022/03/05 01:26:54;;;;;;;;;;;;;;;;;;5085262;28;19924;-78
2022/03/05 01:29:19;;;;;;;;;;;;;;;;;;5079361;28;19990;-78
2022/03/05 01:31:45;;;;;;;;;;;;;;;;;;5077601;28;20022;-79
2022/03/05 01:34:10;;;;;;;;;;;;;;;;;;5086521;28;19923;-78
2022/03/05 01:36:36;;;;;;;;;;;;;;;;;;5086721;28;19928;-78
2022/03/05 01:39:01;;;;;;;;;;;;;;;;;;5078537;28;19920;-78
2022/03/05 01:41:28;;;;;;;;;;;;;;;;;;5073720;28;19939;-78
2022/03/05 01:43:53;;;;;;;;;;;;;;;;;;5076618;28;19928;-78
2022/03/05 01:46:32;;;;;;;;;;;;;;;;;;5093788;28;19916;-78
2022/03/05 01:48:57;;;;;;;;;;;;;;;;;;5073508;28;20368;-78
2022/03/05 01:51:23;;;;;;;;;;;;;;;;;;5073488;28;19916;-78
2022/03/05 01:53:48;;;;;;;;;;;;;;;;;;5090139;28;19942;-78
2022/03/05 01:56:14;;;;;;;;;;;;;;;;;;5075441;28;20002;-77
2022/03/05 01:58:40;;;;;;;;;;;;;;;;;;5085521;28;20306;-80
2022/03/05 02:01:05;;;;;;;;;;;;;;;;;;5079455;28;19924;-81
2022/03/05 02:03:31;;;;;;;;;;;;;;;;;;5056912;28;19916;-79
2022/03/05 02:05:56;;;;;;;;;;;;;;;;;;5092634;28;20018;-81
2022/03/05 02:08:22;;;;;;;;;;;;;;;;;;5093820;28;20424;-79
2022/03/05 02:10:47;;;;;;;;;;;;;;;;;;5088803;28;20429;-79
2022/03/05 02:13:13;;;;;;;;;;;;;;;;;;5073482;28;19962;-80
2022/03/05 02:15:38;;;;;;;;;;;;;;;;;;5073246;28;20431;-81
2022/03/05 02:18:04;;;;;;;;;;;;;;;;;;5088269;28;19917;-80
2022/03/05 02:20:30;;;;;;;;;;;;;;;;;;5089023;28;19982;-81
2022/03/05 02:22:55;;;;;;;;;;;;;;;;;;5083259;28;20295;-80
2022/03/05 02:25:20;;;;;;;;;;;;;;;;;;5085055;28;19963;-80
2022/03/05 02:27:46;;;;;;;;;;;;;;;;;;5073196;28;19959;-80
2022/03/05 02:30:12;;;;;;;;;;;;;;;;;;5055616;28;19917;-80
2022/03/05 02:32:37;;;;;;;;;;;;;;;;;;5084460;28;19963;-81
2022/03/05 02:35:03;;;;;;;;;;;;;;;;;;5093226;28;19919;-80
2022/03/05 02:37:29;;;;;;;;;;;;;;;;;;5093341;28;19960;-80
2022/03/05 02:39:54;;;;;;;;;;;;;;;;;;5081155;28;20288;-79
2022/03/05 02:42:19;;;;;;;;;;;;;;;;;;5076889;28;19916;-80
2022/03/05 02:44:45;;;;;;;;;;;;;;;;;;5080119;28;20395;-80
2022/03/05 02:47:11;;;;;;;;;;;;;;;;;;5086489;28;19926;-78
2022/03/05 02:49:36;;;;;;;;;;;;;;;;;;5076513;28;19927;-79
2022/03/05 02:52:02;;;;;;;;;;;;;;;;;;5094353;28;19916;-80
2022/03/05 02:54:28;;;;;;;;;;;;;;;;;;5085186;28;20344;-78
2022/03/05 02:56:53;;;;;;;;;;;;;;;;;;5058620;28;19916;-77
2022/03/05 02:59:19;;;;;;;;;;;;;;;;;;5076279;28;19968;-78
2022/03/05 03:01:46;;;;;;;;;;;;;;;;;;5076351;28;19966;-81
2022/03/05 03:04:11;;;;;;;;;;;;;;;;;;5079756;28;19917;-79
2022/03/05 03:06:37;;;;;;;;;;;;;;;;;;5078451;28;19943;-80
2022/03/05 03:09:02;;;;;;;;;;;;;;;;;;5096673;28;19969;-79
2022/03/05 03:11:28;;;;;;;;;;;;;;;;;;5096408;28;19916;-79
2022/03/05 03:13:53;;;;;;;;;;;;;;;;;;5096315;28;19916;-80
2022/03/05 03:16:18;;;;;;;;;;;;;;;;;;5096389;28;19916;-79
2022/03/05 03:18:44;;;;;;;;;;;;;;;;;;5078081;28;19916;-81
2022/03/05 03:21:10;;;;;;;;;;;;;;;;;;5096203;28;19916;-79
2022/03/05 03:23:35;;;;;;;;;;;;;;;;;;5096174;28;19920;-80
2022/03/05 03:26:01;;;;;;;;;;;;;;;;;;5075989;28;19916;-79
2022/03/05 03:28:26;;;;;;;;;;;;;;;;;;5075892;28;19916;-80
2022/03/05 03:30:52;;;;;;;;;;;;;;;;;;5075843;28;19920;-79
2022/03/05 03:33:17;;;;;;;;;;;;;;;;;;5075791;28;20326;-81
2022/03/05 03:35:42;;;;;;;;;;;;;;;;;;5075675;28;19923;-78
2022/03/05 03:38:08;;;;;;;;;;;;;;;;;;5075635;28;20024;-79
2022/03/05 03:40:33;;;;;;;;;;;;;;;;;;5075680;28;19952;-78
2022/03/05 03:42:59;;;;;;;;;;;;;;;;;;5075629;28;19920;-78
2022/03/05 03:45:24;;;;;;;;;;;;;;;;;;5075793;28;20385;-78
2022/03/05 03:47:50;;;;;;;;;;;;;;;;;;5075436;28;20419;-78
2022/03/05 03:50:17;;;;;;;;;;;;;;;;;;5057473;28;19939;-78
2022/03/05 03:52:43;;;;;;;;;;;;;;;;;;5084564;28;19916;-78
2022/03/05 03:55:10;;;;;;;;;;;;;;;;;;5090546;28;19920;-79
2022/03/05 03:57:36;;;;;;;;;;;;;;;;;;5089101;28;19920;-80
2022/03/05 04:00:02;;;;;;;;;;;;;;;;;;5085454;28;19989;-80
2022/03/05 04:02:28;;;;;;;;;;;;;;;;;;5076890;28;19927;-79
2022/03/05 04:04:53;;;;;;;;;;;;;;;;;;5089008;28;20018;-79
2022/03/05 04:10:04;;;;;;;;;;;;;;;;;;5089492;28;20008;-80
2022/03/05 04:12:29;;;;;;;;;;;;;;;;;;5095228;28;20010;-80
2022/03/05 04:14:55;;;;;;;;;;;;;;;;;;5095197;28;19955;-80
2022/03/05 04:17:22;;;;;;;;;;;;;;;;;;5095222;28;19969;-79
2022/03/05 04:19:47;;;;;;;;;;;;;;;;;;5094234;28;19916;-79
2022/03/05 04:22:13;;;;;;;;;;;;;;;;;;5092550;28;19916;-79
2022/03/05 04:24:38;;;;;;;;;;;;;;;;;;5085647;28;19916;-78
2022/03/05 04:27:04;;;;;;;;;;;;;;;;;;5084373;28;20011;-78
2022/03/05 04:29:29;;;;;;;;;;;;;;;;;;5083020;28;20391;-78
2022/03/05 04:31:55;;;;;;;;;;;;;;;;;;5094811;28;19924;-80
2022/03/05 04:34:20;;;;;;;;;;;;;;;;;;5091198;28;19920;-78
2022/03/05 04:36:46;;;;;;;;;;;;;;;;;;5089172;28;19920;-79
2022/03/05 04:39:11;;;;;;;;;;;;;;;;;;5081169;28;19923;-78
2022/03/05 04:41:37;;;;;;;;;;;;;;;;;;5079199;28;20003;-79
2022/03/05 04:44:02;;;;;;;;;;;;;;;;;;5078568;28;19998;-78
2022/03/05 04:46:28;;;;;;;;;;;;;;;;;;5091102;28;19920;-80
2022/03/05 04:48:53;;;;;;;;;;;;;;;;;;5084930;28;19959;-78
2022/03/05 04:51:19;;;;;;;;;;;;;;;;;;5074241;28;19970;-78
2022/03/05 04:53:44;;;;;;;;;;;;;;;;;;5074017;28;19916;-79
2022/03/05 04:56:10;;;;;;;;;;;;;;;;;;5073970;28;19920;-79
2022/03/05 04:58:35;;;;;;;;;;;;;;;;;;5073991;28;19924;-79
2022/03/05 05:01:02;;;;;;;;;;;;;;;;;;5087629;28;19916;-83
2022/03/05 05:03:27;;;;;;;;;;;;;;;;;;5094095;28;19920;-81
2022/03/05 05:05:53;;;;;;;;;;;;;;;;;;5093979;28;19916;-80
2022/03/05 05:08:18;;;;;;;;;;;;;;;;;;5094416;28;19917;-79
2022/03/05 05:10:44;;;;;;;;;;;;;;;;;;5094348;28;19961;-83
2022/03/05 05:13:09;;;;;;;;;;;;;;;;;;5094102;28;19916;-82
2022/03/05 05:15:35;;;;;;;;;;;;;;;;;;5094422;28;19939;-79
2022/03/05 05:18:00;;;;;;;;;;;;;;;;;;5094022;28;20011;-78
2022/03/05 05:20:26;;;;;;;;;;;;;;;;;;5094047;28;19916;-80
2022/03/05 05:22:51;;;;;;;;;;;;;;;;;;5094061;28;20314;-78
2022/03/05 05:25:17;;;;;;;;;;;;;;;;;;5093995;28;19916;-77
2022/03/05 05:27:42;;;;;;;;;;;;;;;;;;5093950;28;19961;-77
2022/03/05 05:30:09;;;;;;;;;;;;;;;;;;5093945;28;19916;-78
2022/03/05 05:32:34;;;;;;;;;;;;;;;;;;5093899;28;19970;-79
2022/03/05 05:35:00;;;;;;;;;;;;;;;;;;5093862;28;20368;-78
2022/03/05 05:37:25;;;;;;;;;;;;;;;;;;5094140;28;19920;-80
2022/03/05 05:39:50;;;;;;;;;;;;;;;;;;5093933;28;19920;-81
2022/03/05 05:42:16;;;;;;;;;;;;;;;;;;5075948;28;20003;-79
2022/03/05 05:44:42;;;;;;;;;;;;;;;;;;5093952;28;20257;-80
2022/03/05 05:47:07;;;;;;;;;;;;;;;;;;5090362;28;20272;-79
2022/03/05 05:49:33;;;;;;;;;;;;;;;;;;5073820;28;19978;-80
2022/03/05 05:51:58;;;;;;;;;;;;;;;;;;5073370;28;19921;-80
2022/03/05 05:54:24;;;;;;;;;;;;;;;;;;5073475;28;19924;-82
2022/03/05 05:56:49;;;;;;;;;;;;;;;;;;5073761;28;20322;-79
2022/03/05 05:59:15;;;;;;;;;;;;;;;;;;5073389;28;20315;-79
2022/03/05 06:01:41;;;;;;;;;;;;;;;;;;5073233;28;19916;-78
2022/03/05 06:04:06;;;;;;;;;;;;;;;;;;5055419;28;20421;-82
2022/03/05 06:06:32;;;;;;;;;;;;;;;;;;5073417;28;19916;-78
2022/03/05 06:08:57;;;;;;;;;;;;;;;;;;5073319;28;20360;-79
2022/03/05 06:11:23;;;;;;;;;;;;;;;;;;5073359;28;20262;-78
2022/03/05 06:13:48;;;;;;;;;;;;;;;;;;5073218;28;19917;-79
2022/03/05 06:16:14;;;;;;;;;;;;;;;;;;5076519;28;20372;-79
2022/03/05 06:18:39;;;;;;;;;;;;;;;;;;5077457;28;19975;-79
2022/03/05 06:21:05;;;;;;;;;;;;;;;;;;5077096;28;19975;-78
2022/03/05 06:23:31;;;;;;;;;;;;;;;;;;5077072;28;20003;-78
2022/03/05 06:25:57;;;;;;;;;;;;;;;;;;5076941;28;20005;-80
2022/03/05 06:28:22;;;;;;;;;;;;;;;;;;5076970;28;19924;-79
2022/03/05 06:30:48;;;;;;;;;;;;;;;;;;5077010;28;19923;-81
2022/03/05 06:33:13;;;;;;;;;;;;;;;;;;5077108;28;19917;-81
2022/03/05 06:35:39;;;;;;;;;;;;;;;;;;5076749;28;20368;-81
2022/03/05 06:38:04;;;;;;;;;;;;;;;;;;5076854;28;19960;-83
2022/03/05 06:40:30;;;;;;;;;;;;;;;;;;5076711;28;19923;-79
2022/03/05 06:42:55;;;;;;;;;;;;;;;;;;5076809;28;19924;-78
2022/03/05 06:45:21;;;;;;;;;;;;;;;;;;5076720;28;20372;-78
2022/03/05 06:47:46;;;;;;;;;;;;;;;;;;5076555;28;19978;-79
2022/03/05 06:50:12;;;;;;;;;;;;;;;;;;5076843;28;20019;-81
2022/03/05 06:52:37;;;;;;;;;;;;;;;;;;5076541;28;19969;-79
2022/03/05 06:55:03;;;;;;;;;;;;;;;;;;5076231;28;20007;-80
2022/03/05 06:57:29;;;;;;;;;;;;;;;;;;5076477;28;19924;-79
2022/03/05 06:59:54;;;;;;;;;;;;;;;;;;5076255;28;19917;-79
2022/03/05 07:02:20;;;;;;;;;;;;;;;;;;5076475;28;19970;-78
2022/03/05 07:04:45;;;;;;;;;;;;;;;;;;5058312;28;20342;-79
2022/03/05 07:07:11;;;;;;;;;;;;;;;;;;5077383;28;19924;-82
2022/03/05 07:09:36;;;;;;;;;;;;;;;;;;5081903;28;19927;-80
2022/03/05 07:12:02;;;;;;;;;;;;;;;;;;5080714;28;19952;-78
2022/03/05 07:14:27;;;;;;;;;;;;;;;;;;5084313;28;20008;-78
2022/03/05 07:16:54;;;;;;;;;;;;;;;;;;5086408;28;19995;-79
2022/03/05 07:19:19;;;;;;;;;;;;;;;;;;5085452;28;20377;-80
2022/03/05 07:21:45;;;;;;;;;;;;;;;;;;5088046;28;19932;-78
2022/03/05 07:24:10;;;;;;;;;;;;;;;;;;5092606;28;20334;-78
2022/03/05 07:26:36;;;;;;;;;;;;;;;;;;5064325;28;19920;-79
2022/03/05 07:29:02;;;;;;;;;;;;;;;;;;5066258;28;19969;-77
2022/03/05 07:31:27;;;;;;;;;;;;;;;;;;5062087;28;20281;-79
2022/03/05 07:33:53;;;;;;;;;;;;;;;;;;5078427;28;20013;-84
2022/03/05 07:36:19;;;;;;;;;;;;;;;;;;5083650;28;19927;-79
2022/03/05 07:38:45;;;;;;;;;;;;;;;;;;5082073;28;19924;-80
2022/03/05 07:41:11;;;;;;;;;;;;;;;;;;5087230;28;19920;-79
2022/03/05 07:43:37;;;;;;;;;;;;;;;;;;5084510;28;20283;-78
2022/03/05 07:46:02;;;;;;;;;;;;;;;;;;5094644;28;19923;-79
2022/03/05 07:48:28;;;;;;;;;;;;;;;;;;5057932;28;19916;-81
2022/03/05 07:50:54;;;;;;;;;;;;;;;;;;5075488;28;19923;-79
2022/03/05 07:53:19;;;;;;;;;;;;;;;;;;5084169;28;19970;-79
2022/03/05 07:55:45;;;;;;;;;;;;;;;;;;5084313;28;20016;-79
2022/03/05 07:58:11;;;;;;;;;;;;;;;;;;5080468;28;19967;-80
2022/03/05 08:00:36;;;;;;;;;;;;;;;;;;5084169;28;19928;-78
2022/03/05 08:03:01;;;;;;;;;;;;;;;;;;5095506;28;19916;-78
2022/03/05 08:05:27;;;;;;;;;;;;;;;;;;5095472;28;20319;-78
2022/03/05 08:07:54;;;;;;;;;;;;;;;;;;5095352;28;20272;-79
2022/03/05 08:10:20;;;;;;;;;;;;;;;;;;5095292;28;20265;-79
2022/03/05 08:12:45;;;;;;;;;;;;;;;;;;5095659;28;19924;-81
2022/03/05 08:15:11;;;;;;;;;;;;;;;;;;5095211;28;19916;-80
2022/03/05 08:17:36;;;;;;;;;;;;;;;;;;5095214;28;20284;-80
2022/03/05 08:20:02;;;;;;;;;;;;;;;;;;5094988;28;19969;-82
2022/03/05 08:22:28;;;;;;;;;;;;;;;;;;5095080;28;19924;-80
2022/03/05 08:24:53;;;;;;;;;;;;;;;;;;5095005;28;19916;-80
2022/03/05 08:27:18;;;;;;;;;;;;;;;;;;5095150;28;19916;-80
2022/03/05 08:29:44;;;;;;;;;;;;;;;;;;5076675;28;20015;-84
2022/03/05 08:32:10;;;;;;;;;;;;;;;;;;5076748;28;20356;-77
2022/03/05 08:34:35;;;;;;;;;;;;;;;;;;5094721;28;19920;-79
2022/03/05 08:37:01;;;;;;;;;;;;;;;;;;5094507;28;19917;-81
2022/03/05 08:39:28;;;;;;;;;;;;;;;;;;5093656;28;19916;-80
2022/03/05 08:41:54;;;;;;;;;;;;;;;;;;5094653;28;19923;-81
2022/03/05 08:44:19;;;;;;;;;;;;;;;;;;5094947;28;19912;-82
2022/03/05 08:46:44;;;;;;;;;;;;;;;;;;5094648;28;19959;-81
2022/03/05 08:49:10;;;;;;;;;;;;;;;;;;5094701;28;19978;-82
2022/03/05 08:51:35;;;;;;;;;;;;;;;;;;5094784;28;19923;-79
2022/03/05 08:54:01;;;;;;;;;;;;;;;;;;5094530;28;20272;-80
2022/03/05 08:56:26;;;;;;;;;;;;;;;;;;5094377;28;19920;-80
2022/03/05 08:58:52;;;;;;;;;;;;;;;;;;5093110;28;19923;-81
2022/03/05 09:01:17;;;;;;;;;;;;;;;;;;5094437;28;19916;-80
2022/03/05 09:03:43;;;;;;;;;;;;;;;;;;5094327;28;19912;-82
2022/03/05 09:06:08;;;;;;;;;;;;;;;;;;5094494;28;19916;-80
2022/03/05 09:08:35;;;;;;;;;;;;;;;;;;5094265;28;19948;-82
2022/03/05 09:11:00;;;;;;;;;;;;;;;;;;5094101;28;20028;-81
2022/03/05 09:13:26;;;;;;;;;;;;;;;;;;5094205;28;20364;-80
2022/03/05 09:15:51;;;;;;;;;;;;;;;;;;5094204;28;19912;-82
2022/03/05 09:18:16;;;;;;;;;;;;;;;;;;5094259;28;19916;-82
2022/03/05 09:20:46;;;;;;;;;;;;;;;;;;5094115;28;20469;-82
2022/03/05 09:23:11;;;;;;;;;;;;;;;;;;5094053;28;19919;-81
2022/03/05 09:25:37;;;;;;;;;;;;;;;;;;5094086;28;19920;-82
2022/03/05 09:28:02;;;;;;;;;;;;;;;;;;5090659;28;19959;-83
2022/03/05 09:30:28;;;;;;;;;;;;;;;;;;5082017;28;19970;-80
2022/03/05 09:32:53;;;;;;;;;;;;;;;;;;5073674;28;19916;-83
2022/03/05 09:35:19;;;;;;;;;;;;;;;;;;5055794;28;19912;-80
2022/03/05 09:37:44;;;;;;;;;;;;;;;;;;5055996;28;19916;-83
2022/03/05 09:40:10;;;;;;;;;;;;;;;;;;5073573;28;19916;-82
2022/03/05 09:42:39;;;;;;;;;;;;;;;;;;5073664;28;19920;-81
2022/03/05 09:45:05;;;;;;;;;;;;;;;;;;5073643;28;19922;-81
2022/03/05 09:47:31;;;;;;;;;;;;;;;;;;5073512;28;19917;-82
2022/03/05 09:49:56;;;;;;;;;;;;;;;;;;5074674;28;19916;-81
2022/03/05 09:52:21;;;;;;;;;;;;;;;;;;5077848;28;19917;-78
2022/03/05 09:54:47;;;;;;;;;;;;;;;;;;5077463;28;20308;-79
2022/03/05 09:57:13;;;;;;;;;;;;;;;;;;5077794;28;19920;-80
2022/03/05 09:59:39;;;;;;;;;;;;;;;;;;5077463;28;19959;-80
2022/03/05 10:02:05;;;;;;;;;;;;;;;;;;5077547;28;19975;-79
2022/03/05 10:04:31;;;;;;;;;;;;;;;;;;5077475;28;20368;-79
2022/03/05 10:07:13;;;;;;;;;;;;;;;;;;5077404;28;19964;-80
2022/03/05 10:09:39;;;;;;;;;;;;;;;;;;5077295;28;19978;-79
2022/03/05 10:12:23;;;;;;;;;;;;;;;;;;5079732;28;19916;-79
2022/03/05 10:15:07;;;;;;;;;;;;;;;;;;5086233;28;20360;-78
2022/03/05 10:17:49;;;;;;;;;;;;;;;;;;5077315;28;19912;-80
2022/03/05 10:20:15;;;;;;;;;;;;;;;;;;5077140;28;19968;-77
2022/03/05 10:22:55;;;;;;;;;;;;;;;;;;5077389;28;19947;-78
2022/03/05 10:25:40;;;;;;;;;;;;;;;;;;5079505;28;19927;-80
2022/03/05 10:28:07;;;;;;;;;;;;;;;;;;5087289;28;19924;-79
2022/03/05 10:30:34;;;;;;;;;;;;;;;;;;5084755;28;19921;-81
2022/03/05 10:32:59;;;;;;;;;;;;;;;;;;5097815;28;20409;-79
2022/03/05 10:35:25;;;;;;;;;;;;;;;;;;5096371;28;19916;-82
2022/03/05 10:37:51;;;;;;;;;;;;;;;;;;5097023;28;19920;-80
2022/03/05 10:40:24;;;;;;;;;;;;;;;;;;5097037;28;19928;-78
2022/03/05 10:42:49;;;;;;;;;;;;;;;;;;5097108;28;19916;-80
2022/03/05 10:45:18;;;;;;;;;;;;;;;;;;5097037;28;19981;-79
2022/03/05 10:47:46;;;;;;;;;;;;;;;;;;5096869;28;19969;-80
2022/03/05 10:50:24;;;;;;;;;;;;;;;;;;5096891;28;20356;-79
2022/03/05 10:52:54;;;;;;;;;;;;;;;;;;5096843;28;19916;-78
2022/03/05 10:55:27;;;;;;;;;;;;;;;;;;5096701;28;20283;-79
2022/03/05 10:57:55;;;;;;;;;;;;;;;;;;5096695;28;20408;-78
2022/03/05 11:00:20;;;;;;;;;;;;;;;;;;5096238;28;19916;-78
2022/03/05 11:02:46;;;;;;;;;;;;;;;;;;5096648;28;19916;-80
2022/03/05 11:05:11;;;;;;;;;;;;;;;;;;5096730;28;20029;-79
2022/03/05 11:07:37;;;;;;;;;;;;;;;;;;5096503;28;20377;-80
2022/03/05 11:10:03;;;;;;;;;;;;;;;;;;5096715;28;19916;-79
2022/03/05 11:12:30;;;;;;;;;;;;;;;;;;5096501;28;19916;-82
2022/03/05 11:14:55;;;;;;;;;;;;;;;;;;5096414;28;20394;-78
2022/03/05 11:17:21;;;;;;;;;;;;;;;;;;5078238;28;19916;-78
2022/03/05 11:19:46;;;;;;;;;;;;;;;;;;5096303;28;19916;-78
2022/03/05 11:22:14;;;;;;;;;;;;;;;;;;5096252;28;19917;-78
2022/03/05 11:24:40;;;;;;;;;;;;;;;;;;5096475;28;19920;-80
2022/03/05 11:27:06;;;;;;;;;;;;;;;;;;5096233;28;20425;-79
2022/03/05 11:29:50;;;;;;;;;;;;;;;;;;5096388;28;19920;-78
2022/03/05 11:32:15;;;;;;;;;;;;;;;;;;5096209;28;19927;-79
2022/03/05 11:34:44;;;;;;;;;;;;;;;;;;5096056;28;19916;-80
2022/03/05 11:37:30;;;;;;;;;;;;;;;;;;5095969;28;19916;-78
2022/03/05 11:39:55;;;;;;;;;;;;;;;;;;5095750;28;19920;-79
2022/03/05 11:42:27;;;;;;;;;;;;;;;;;;5095917;28;19922;-78
2022/03/05 11:44:52;;;;;;;;;;;;;;;;;;5095870;28;19916;-79
2022/03/05 11:47:24;;;;;;;;;;;;;;;;;;5095952;28;19961;-78
2022/03/05 11:49:58;;;;;;;;;;;;;;;;;;5077581;28;20296;-78
2022/03/05 11:52:47;;;;;;;;;;;;;;;;;;5095725;28;19999;-79
2022/03/05 11:55:19;;;;;;;;;;;;;;;;;;5086990;28;19923;-78
2022/03/05 11:57:51;;;;;;;;;;;;;;;;;;5095558;28;19916;-79
2022/03/05 12:00:27;;;;;;;;;;;;;;;;;;5095444;28;19927;-79
2022/03/05 12:02:57;;;;;;;;;;;;;;;;;;5095495;28;19962;-81
2022/03/05 12:05:38;;;;;;;;;;;;;;;;;;5077410;28;19916;-78
2022/03/05 12:08:06;;;;;;;;;;;;;;;;;;5095239;28;19916;-78
2022/03/05 12:10:34;;;;;;;;;;;;;;;;;;5095409;28;19916;-78
2022/03/05 12:13:07;;;;;;;;;;;;;;;;;;5094714;28;20272;-79
2022/03/05 12:15:40;;;;;;;;;;;;;;;;;;5095277;28;19916;-80
2022/03/05 12:18:08;;;;;;;;;;;;;;;;;;5095077;28;19920;-79
2022/03/05 12:20:34;;;;;;;;;;;;;;;;;;5095264;28;19916;-81
2022/03/05 12:23:02;;;;;;;;;;;;;;;;;;5095160;28;19916;-79
2022/03/05 12:25:28;;;;;;;;;;;;;;;;;;5095101;28;19923;-80
2022/03/05 12:27:54;;;;;;;;;;;;;;;;;;5095218;28;19970;-79
2022/03/05 12:30:22;;;;;;;;;;;;;;;;;;5094962;28;19923;-78
2022/03/05 12:32:47;;;;;;;;;;;;;;;;;;5095146;28;20286;-79
2022/03/05 12:35:14;;;;;;;;;;;;;;;;;;5095004;28;19924;-78
2022/03/05 12:37:39;;;;;;;;;;;;;;;;;;5094789;28;19952;-78
2022/03/05 12:40:06;;;;;;;;;;;;;;;;;;5076550;28;19920;-78
2022/03/05 12:42:35;;;;;;;;;;;;;;;;;;5094662;28;19977;-79
2022/03/05 12:45:01;;;;;;;;;;;;;;;;;;5094705;28;19916;-78
2022/03/05 12:47:33;;;;;;;;;;;;;;;;;;5094664;28;20019;-78
2022/03/05 12:50:17;;;;;;;;;;;;;;;;;;5094563;28;19924;-79
2022/03/05 12:52:52;;;;;;;;;;;;;;;;;;5094537;28;19920;-78
2022/03/05 12:55:18;;;;;;;;;;;;;;;;;;5094553;28;19920;-81
2022/03/05 12:57:44;;;;;;;;;;;;;;;;;;5094403;28;20007;-80
2022/03/05 13:00:10;;;;;;;;;;;;;;;;;;5094301;28;19916;-78
2022/03/05 13:02:38;;;;;;;;;;;;;;;;;;5093950;28;20209;-80
2022/03/05 13:05:16;;;;;;;;;;;;;;;;;;5094374;28;20376;-79
2022/03/05 13:07:41;;;;;;;;;;;;;;;;;;5094262;28;19923;-81
2022/03/05 13:10:08;;;;;;;;;;;;;;;;;;5094262;28;19916;-80
2022/03/05 13:12:34;;;;;;;;;;;;;;;;;;5094278;28;20003;-86
2022/03/05 13:14:59;;;;;;;;;;;;;;;;;;5094171;28;19916;-78
2022/03/05 13:17:25;;;;;;;;;;;;;;;;;;5094237;28;19920;-82
2022/03/05 13:20:00;;;;;;;;;;;;;;;;;;5093993;28;19916;-81
2022/03/05 13:22:26;;;;;;;;;;;;;;;;;;5094065;28;20364;-79
2022/03/05 13:24:51;;;;;;;;;;;;;;;;;;5093785;28;19961;-80
2022/03/05 13:27:17;;;;;;;;;;;;;;;;;;5093366;28;19952;-80
2022/03/05 13:29:42;;;;;;;;;;;;;;;;;;5093734;28;19916;-78
2022/03/05 13:32:08;;;;;;;;;;;;;;;;;;5094065;28;19923;-78
2022/03/05 13:34:33;;;;;;;;;;;;;;;;;;5092728;28;20012;-78
2022/03/05 13:37:12;;;;;;;;;;;;;;;;;;5094157;28;20296;-79
2022/03/05 13:39:37;;;;;;;;;;;;;;;;;;5093588;28;19920;-80
2022/03/05 13:42:10;;;;;;;;;;;;;;;;;;5093878;28;19939;-81
2022/03/05 13:44:36;;;;;;;;;;;;;;;;;;5093853;28;19917;-79
2022/03/05 13:47:04;;;;;;;;;;;;;;;;;;5093772;28;20378;-80
2022/03/05 13:49:29;;;;;;;;;;;;;;;;;;5093794;28;19916;-79
2022/03/05 13:51:56;;;;;;;;;;;;;;;;;;5093578;28;19943;-79
2022/03/05 13:54:37;;;;;;;;;;;;;;;;;;5093947;28;19960;-80
2022/03/05 13:57:03;;;;;;;;;;;;;;;;;;5093793;28;20049;-78
2022/03/05 13:59:38;;;;;;;;;;;;;;;;;;5093603;28;20003;-81
2022/03/05 14:02:04;;;;;;;;;;;;;;;;;;5093581;28;19918;-80
2022/03/05 14:04:29;;;;;;;;;;;;;;;;;;5093617;28;19916;-79
2022/03/05 14:07:01;;;;;;;;;;;;;;;;;;5093780;28;19924;-80
2022/03/05 14:09:36;;;;;;;;;;;;;;;;;;5093581;28;19923;-79
2022/03/05 14:12:12;;;;;;;;;;;;;;;;;;5093536;28;20429;-80
2022/03/05 14:14:39;;;;;;;;;;;;;;;;;;5093570;28;19916;-79
2022/03/05 14:17:05;;;;;;;;;;;;;;;;;;5093436;28;20006;-80
2022/03/05 14:19:31;;;;;;;;;;;;;;;;;;5093420;28;19999;-79
2022/03/05 14:22:03;;;;;;;;;;;;;;;;;;5093431;28;20012;-82
2022/03/05 14:24:29;;;;;;;;;;;;;;;;;;5093632;28;19923;-80
2022/03/05 14:26:54;;;;;;;;;;;;;;;;;;5093636;28;19916;-80
2022/03/05 14:29:19;;;;;;;;;;;;;;;;;;5093441;28;19916;-84
2022/03/05 14:31:45;;;;;;;;;;;;;;;;;;5093262;28;19926;-80
2022/03/05 14:34:21;;;;;;;;;;;;;;;;;;5093378;28;20009;-84
2022/03/05 14:36:47;;;;;;;;;;;;;;;;;;5095797;28;20269;-81
2022/03/05 14:39:13;;;;;;;;;;;;;;;;;;5097017;28;20007;-80
2022/03/05 14:41:39;;;;;;;;;;;;;;;;;;5097430;28;20362;-79
2022/03/05 14:44:04;;;;;;;;;;;;;;;;;;5096414;28;19916;-78
2022/03/05 14:46:30;;;;;;;;;;;;;;;;;;5097000;28;19916;-81
2022/03/05 14:48:55;;;;;;;;;;;;;;;;;;5097155;28;19927;-80
2022/03/05 14:51:21;;;;;;;;;;;;;;;;;;5097015;28;19916;-81
2022/03/05 14:53:49;;;;;;;;;;;;;;;;;;5096680;28;20359;-80
2022/03/05 14:56:15;;;;;;;;;;;;;;;;;;5097047;28;19920;-80
2022/03/05 14:58:41;;;;;;;;;;;;;;;;;;5096770;28;19939;-81
2022/03/05 15:01:06;;;;;;;;;;;;;;;;;;5096732;28;20015;-82
2022/03/05 15:03:32;;;;;;;;;;;;;;;;;;5096680;28;20023;-80
2022/03/05 15:05:58;;;;;;;;;;;;;;;;;;5096577;28;19922;-79
2022/03/05 15:08:23;;;;;;;;;;;;;;;;;;5096869;28;19942;-78
2022/03/05 15:10:49;;;;;;;;;;;;;;;;;;5096535;28;19912;-79
2022/03/05 15:13:14;;;;;;;;;;;;;;;;;;5096529;28;20367;-79
2022/03/05 15:15:40;;;;;;;;;;;;;;;;;;5096506;28;19912;-80
2022/03/05 15:18:05;;;;;;;;;;;;;;;;;;5096275;28;19955;-79
2022/03/05 15:20:31;;;;;;;;;;;;;;;;;;5096413;28;20371;-81
2022/03/05 15:22:56;;;;;;;;;;;;;;;;;;5096463;28;19923;-79
2022/03/05 15:25:21;;;;;;;;;;;;;;;;;;5096340;28;19955;-85
2022/03/05 15:27:47;;;;;;;;;;;;;;;;;;5096183;28;19916;-82
2022/03/05 15:30:12;;;;;;;;;;;;;;;;;;5096100;28;19916;-80
2022/03/05 15:32:38;;;;;;;;;;;;;;;;;;5096052;28;19939;-83
2022/03/05 15:35:04;;;;;;;;;;;;;;;;;;5096252;28;19920;-79
2022/03/05 15:37:29;;;;;;;;;;;;;;;;;;5096067;28;19923;-77
2022/03/05 15:39:55;;;;;;;;;;;;;;;;;;5095828;28;20291;-79
2022/03/05 15:42:20;;;;;;;;;;;;;;;;;;5095947;28;19916;-80
2022/03/05 15:44:46;;;;;;;;;;;;;;;;;;5095915;28;19955;-79
2022/03/05 15:47:11;;;;;;;;;;;;;;;;;;5094815;28;19923;-79
2022/03/05 15:49:37;;;;;;;;;;;;;;;;;;5094806;28;19927;-80
2022/03/05 15:52:03;;;;;;;;;;;;;;;;;;5095590;28;19920;-80
2022/03/05 15:54:28;;;;;;;;;;;;;;;;;;5095749;28;20276;-81
2022/03/05 15:56:54;;;;;;;;;;;;;;;;;;5096024;28;20380;-79
2022/03/05 15:59:20;;;;;;;;;;;;;;;;;;5095359;28;20403;-80
2022/03/05 16:01:46;;;;;;;;;;;;;;;;;;5095464;28;20021;-79
2022/03/05 16:04:12;;;;;;;;;;;;;;;;;;5095682;28;20407;-78
2022/03/05 16:06:37;;;;;;;;;;;;;;;;;;5095593;28;19927;-78
2022/03/05 16:09:03;;;;;;;;;;;;;;;;;;5095697;28;20003;-79
2022/03/05 16:11:30;;;;;;;;;;;;;;;;;;5095188;28;19923;-79
2022/03/05 16:13:55;;;;;;;;;;;;;;;;;;5095239;28;19916;-79
2022/03/05 16:16:20;;;;;;;;;;;;;;;;;;5095368;28;19923;-79
2022/03/05 16:18:47;;;;;;;;;;;;;;;;;;5095211;28;19924;-79
2022/03/05 16:21:13;;;;;;;;;;;;;;;;;;5095185;28;19917;-79
2022/03/05 16:23:39;;;;;;;;;;;;;;;;;;5095205;28;19962;-79
2022/03/05 16:26:12;;;;;;;;;;;;;;;;;;5095028;28;20359;-78
2022/03/05 16:28:38;;;;;;;;;;;;;;;;;;5094837;28;20299;-80
2022/03/05 16:31:03;;;;;;;;;;;;;;;;;;5094859;28;19923;-78
2022/03/05 16:33:32;;;;;;;;;;;;;;;;;;5095067;28;19916;-79
2022/03/05 16:35:57;;;;;;;;;;;;;;;;;;5094846;28;19916;-79
2022/03/05 16:38:23;;;;;;;;;;;;;;;;;;5094797;28;20320;-78
2022/03/05 16:40:48;;;;;;;;;;;;;;;;;;5093807;28;19916;-78
2022/03/05 16:43:14;;;;;;;;;;;;;;;;;;5094905;28;20284;-77
2022/03/05 16:45:39;;;;;;;;;;;;;;;;;;5094730;28;19916;-77